createdAt,value
2022-10-29T00:02:05.954Z,18.45
2022-10-29T00:04:34.207Z,18.46
2022-10-29T00:07:00.665Z,18.47
2022-10-29T00:09:27.170Z,18.49
2022-10-29T00:11:53.625Z,18.51
2022-10-29T00:14:21.197Z,18.53
2022-10-29T00:16:47.725Z,18.51
2022-10-29T00:19:14.173Z,18.46
2022-10-29T00:21:40.982Z,18.42
2022-10-29T00:24:10.730Z,18.39
2022-10-29T00:26:37.281Z,18.39
2022-10-29T00:29:03.791Z,18.40
2022-10-29T00:31:31.022Z,18.40
2022-10-29T00:33:57.605Z,18.41
2022-10-29T00:36:27.074Z,18.40
2022-10-29T00:38:54.083Z,18.39
2022-10-29T00:41:26.613Z,18.37
2022-10-29T00:44:18.976Z,18.34
2022-10-29T00:46:49.341Z,18.34
2022-10-29T00:49:17.430Z,18.33
2022-10-29T00:51:45.993Z,18.32
2022-10-29T00:54:16.814Z,18.32
2022-10-29T00:56:48.142Z,18.32
2022-10-29T00:59:17.304Z,18.32
2022-10-29T01:01:47.359Z,18.33
2022-10-29T01:04:18.459Z,18.32
2022-10-29T01:06:46.907Z,18.32
2022-10-29T01:09:13.424Z,18.32
2022-10-29T01:12:08.908Z,18.32
2022-10-29T01:14:54.141Z,18.33
2022-10-29T01:17:54.501Z,18.30
2022-10-29T01:20:39.173Z,18.27
2022-10-29T01:23:22.737Z,18.25
2022-10-29T01:26:26.245Z,18.26
2022-10-29T01:29:11.578Z,18.28
2022-10-29T01:31:44.393Z,18.30
2022-10-29T01:34:30.720Z,18.30
2022-10-29T01:37:03.644Z,18.30
2022-10-29T01:39:42.823Z,18.29
2022-10-29T01:42:32.290Z,18.29
2022-10-29T01:45:06.370Z,18.32
2022-10-29T01:47:42.270Z,18.33
2022-10-29T01:50:13.027Z,18.36
2022-10-29T01:52:41.165Z,18.38
2022-10-29T01:55:08.685Z,18.39
2022-10-29T01:57:37.948Z,18.40
2022-10-29T02:00:22.404Z,18.39
2022-10-29T02:03:05.689Z,18.39
2022-10-29T02:05:42.609Z,18.40
2022-10-29T02:08:34.286Z,18.38
2022-10-29T02:11:21.196Z,18.38
2022-10-29T02:14:20.938Z,18.38
2022-10-29T02:16:48.352Z,18.40
2022-10-29T02:19:14.885Z,18.41
2022-10-29T02:21:42.466Z,18.41
2022-10-29T02:24:12.921Z,18.41
2022-10-29T02:26:39.430Z,18.41
2022-10-29T02:29:05.884Z,18.42
2022-10-29T02:31:32.440Z,18.40
2022-10-29T02:33:58.897Z,18.37
2022-10-29T02:36:25.400Z,18.34
2022-10-29T02:38:51.863Z,18.34
2022-10-29T02:41:18.351Z,18.33
2022-10-29T02:43:44.796Z,18.33
2022-10-29T02:46:18.351Z,18.30
2022-10-29T02:48:44.992Z,18.30
2022-10-29T02:51:12.348Z,18.29
2022-10-29T02:53:39.016Z,18.29
2022-10-29T02:56:06.511Z,18.28
2022-10-29T02:58:33.492Z,18.28
2022-10-29T03:01:00.845Z,18.26
2022-10-29T03:03:27.605Z,18.24
2022-10-29T03:05:58.443Z,18.25
2022-10-29T03:08:24.977Z,18.25
2022-10-29T03:10:51.657Z,18.24
2022-10-29T03:13:18.626Z,18.24
2022-10-29T03:15:49.164Z,18.22
2022-10-29T03:18:15.617Z,18.18
2022-10-29T03:20:43.194Z,18.16
2022-10-29T03:23:09.643Z,18.16
2022-10-29T03:25:38.056Z,18.13
2022-10-29T03:28:04.756Z,18.11
2022-10-29T03:30:31.262Z,18.09
2022-10-29T03:32:58.080Z,18.08
2022-10-29T03:35:25.101Z,18.06
2022-10-29T03:37:52.314Z,18.07
2022-10-29T03:40:19.412Z,18.06
2022-10-29T03:42:46.324Z,18.07
2022-10-29T03:45:14.207Z,18.08
2022-10-29T03:47:40.715Z,18.08
2022-10-29T03:50:07.891Z,18.07
2022-10-29T03:52:34.382Z,18.06
2022-10-29T03:55:08.535Z,18.02
2022-10-29T03:57:35.282Z,18.01
2022-10-29T04:00:04.789Z,18.00
2022-10-29T04:02:39.536Z,18.00
2022-10-29T04:05:09.513Z,17.97
2022-10-29T04:07:36.079Z,17.93
2022-10-29T04:10:02.572Z,17.88
2022-10-29T04:12:29.103Z,17.84
2022-10-29T04:14:57.058Z,17.81
2022-10-29T04:17:23.565Z,17.78
2022-10-29T04:19:50.060Z,17.77
2022-10-29T04:24:24.656Z,17.74
2022-10-29T04:30:43.226Z,17.65
2022-10-29T04:33:09.679Z,17.64
2022-10-29T04:35:37.017Z,17.64
2022-10-29T04:38:11.252Z,17.64
2022-10-29T04:40:37.777Z,17.65
2022-10-29T04:43:04.479Z,17.68
2022-10-29T04:45:30.984Z,17.72
2022-10-29T04:48:01.440Z,17.75
2022-10-29T04:50:28.870Z,17.77
2022-10-29T04:52:59.655Z,17.82
2022-10-29T04:55:28.243Z,17.84
2022-10-29T04:57:55.487Z,17.87
2022-10-29T05:00:23.531Z,17.89
2022-10-29T05:02:51.598Z,17.93
2022-10-29T05:05:22.889Z,17.94
2022-10-29T05:07:49.583Z,17.95
2022-10-29T05:10:16.233Z,17.97
2022-10-29T05:12:42.699Z,17.99
2022-10-29T05:15:10.861Z,18.00
2022-10-29T05:17:38.720Z,18.02
2022-10-29T05:20:06.021Z,18.02
2022-10-29T05:22:32.571Z,18.01
2022-10-29T05:24:59.056Z,18.00
2022-10-29T05:27:25.647Z,17.99
2022-10-29T05:29:52.092Z,17.98
2022-10-29T05:32:18.790Z,17.97
2022-10-29T05:34:46.177Z,17.97
2022-10-29T05:37:12.661Z,17.99
2022-10-29T05:39:39.179Z,17.98
2022-10-29T05:42:06.413Z,18.01
2022-10-29T05:44:37.193Z,18.01
2022-10-29T05:47:05.929Z,18.02
2022-10-29T05:49:32.389Z,18.04
2022-10-29T05:51:58.878Z,18.03
2022-10-29T05:54:26.979Z,18.04
2022-10-29T05:56:53.548Z,18.05
2022-10-29T05:59:19.985Z,18.06
2022-10-29T06:01:46.550Z,18.08
2022-10-29T06:04:13.946Z,18.10
2022-10-29T06:06:40.863Z,18.12
2022-10-29T06:09:07.454Z,18.13
2022-10-29T06:11:33.913Z,18.14
2022-10-29T06:14:00.431Z,18.13
2022-10-29T06:16:26.911Z,18.14
2022-10-29T06:18:53.399Z,18.14
2022-10-29T06:21:19.849Z,18.15
2022-10-29T06:23:46.286Z,18.15
2022-10-29T06:26:12.784Z,18.16
2022-10-29T06:28:39.267Z,18.18
2022-10-29T06:31:05.731Z,18.21
2022-10-29T06:33:32.216Z,18.22
2022-10-29T06:36:00.598Z,18.25
2022-10-29T06:38:27.149Z,18.26
2022-10-29T06:40:53.974Z,18.27
2022-10-29T06:43:20.823Z,18.28
2022-10-29T06:45:49.629Z,18.31
2022-10-29T06:48:19.158Z,18.34
2022-10-29T06:50:48.600Z,18.37
2022-10-29T06:53:16.346Z,18.39
2022-10-29T06:55:44.067Z,18.39
2022-10-29T06:58:15.941Z,18.40
2022-10-29T07:00:43.407Z,18.40
2022-10-29T07:03:20.786Z,18.42
2022-10-29T07:05:56.127Z,18.42
2022-10-29T07:08:22.653Z,18.44
2022-10-29T07:10:53.532Z,18.47
2022-10-29T07:13:20.327Z,18.45
2022-10-29T07:15:46.951Z,18.42
2022-10-29T07:18:13.759Z,18.38
2022-10-29T07:20:43.415Z,18.37
2022-10-29T07:23:11.476Z,18.37
2022-10-29T07:25:40.551Z,18.39
2022-10-29T07:28:12.748Z,18.40
2022-10-29T07:30:40.252Z,18.42
2022-10-29T07:33:06.786Z,18.45
2022-10-29T07:35:37.973Z,18.47
2022-10-29T07:38:09.067Z,18.51
2022-10-29T07:40:38.469Z,18.55
2022-10-29T07:43:04.981Z,18.59
2022-10-29T07:45:32.859Z,18.63
2022-10-29T07:48:04.742Z,18.67
2022-10-29T07:50:31.989Z,18.69
2022-10-29T07:53:02.397Z,18.72
2022-10-29T07:58:06.881Z,18.81
2022-10-29T08:00:38.167Z,18.85
2022-10-29T08:03:05.534Z,18.89
2022-10-29T08:05:34.152Z,18.93
2022-10-29T08:08:00.897Z,18.97
2022-10-29T08:10:28.293Z,18.99
2022-10-29T08:12:57.888Z,19.04
2022-10-29T08:15:31.669Z,19.09
2022-10-29T08:17:58.402Z,19.14
2022-10-29T08:20:27.722Z,19.19
2022-10-29T08:22:54.661Z,19.23
2022-10-29T08:25:26.141Z,19.28
2022-10-29T08:28:03.011Z,19.34
2022-10-29T08:30:29.980Z,19.41
2022-10-29T08:32:56.721Z,19.45
2022-10-29T08:35:24.957Z,19.52
2022-10-29T08:37:51.777Z,19.59
2022-10-29T08:40:43.367Z,19.65
2022-10-29T08:43:34.699Z,19.74
2022-10-29T08:46:01.274Z,19.82
2022-10-29T08:48:41.876Z,19.88
2022-10-29T08:51:21.319Z,19.95
2022-10-29T08:54:10.313Z,20.03
2022-10-29T08:56:54.809Z,20.09
2022-10-29T08:59:24.205Z,20.14
2022-10-29T09:01:55.054Z,20.20
2022-10-29T09:04:40.755Z,20.26
2022-10-29T09:07:07.120Z,20.35
2022-10-29T09:10:12.688Z,20.45
2022-10-29T09:12:54.704Z,20.52
2022-10-29T09:15:41.275Z,20.59
2022-10-29T09:18:44.689Z,20.66
2022-10-29T09:21:48.241Z,20.71
2022-10-29T09:24:40.625Z,20.77
2022-10-29T09:27:48.369Z,20.83
2022-10-29T09:30:18.640Z,20.91
2022-10-29T09:33:07.176Z,20.98
2022-10-29T09:35:46.355Z,21.05
2022-10-29T09:38:18.140Z,21.13
2022-10-29T09:40:45.199Z,21.19
2022-10-29T09:44:13.473Z,21.25
2022-10-29T09:47:28.632Z,21.36
2022-10-29T09:50:10.465Z,21.40
2022-10-29T09:52:41.373Z,21.44
2022-10-29T09:55:25.528Z,21.47
2022-10-29T09:57:53.605Z,21.53
2022-10-29T10:00:29.903Z,21.56
2022-10-29T10:03:15.476Z,21.60
2022-10-29T10:05:56.390Z,21.67
2022-10-29T10:08:22.880Z,21.75
2022-10-29T10:10:54.694Z,21.78
2022-10-29T10:13:27.656Z,21.82
2022-10-29T10:15:57.829Z,21.87
2022-10-29T10:18:33.668Z,21.94
2022-10-29T10:21:10.891Z,22.02
2022-10-29T10:23:54.545Z,22.12
2022-10-29T10:26:36.730Z,22.26
2022-10-29T10:29:22.996Z,22.44
2022-10-29T10:31:56.490Z,22.65
2022-10-29T10:34:36.384Z,22.88
2022-10-29T10:37:18.747Z,23.14
2022-10-29T10:39:54.694Z,23.39
2022-10-29T10:42:32.343Z,23.63
2022-10-29T10:45:25.764Z,23.88
2022-10-29T10:47:58.836Z,24.13
2022-10-29T10:50:36.666Z,24.33
2022-10-29T10:53:14.856Z,24.53
2022-10-29T10:55:52.496Z,24.67
2022-10-29T10:58:35.679Z,24.83
2022-10-29T11:01:15.058Z,24.99
2022-10-29T11:04:07.765Z,25.15
2022-10-29T11:06:40.359Z,25.27
2022-10-29T11:09:24.079Z,25.37
2022-10-29T11:12:00.020Z,25.49
2022-10-29T11:14:34.698Z,25.58
2022-10-29T11:17:02.949Z,25.67
2022-10-29T11:19:45.826Z,25.74
2022-10-29T11:22:23.149Z,25.85
2022-10-29T11:25:02.345Z,25.93
2022-10-29T11:27:48.020Z,26.05
2022-10-29T11:30:19.252Z,26.15
2022-10-29T11:33:17.884Z,26.26
2022-10-29T11:35:49.435Z,26.40
2022-10-29T11:38:25.972Z,26.53
2022-10-29T11:41:22.038Z,26.68
2022-10-29T11:43:48.900Z,26.81
2022-10-29T11:46:37.737Z,26.92
2022-10-29T11:49:12.129Z,27.06
2022-10-29T11:51:53.839Z,27.18
2022-10-29T11:54:35.303Z,27.28
2022-10-29T11:57:12.096Z,27.36
2022-10-29T12:00:18.180Z,27.43
2022-10-29T12:03:07.047Z,27.44
2022-10-29T12:06:06.809Z,27.39
2022-10-29T12:08:55.039Z,27.34
2022-10-29T12:11:21.501Z,27.33
2022-10-29T12:14:15.977Z,27.34
2022-10-29T12:17:09.859Z,27.32
2022-10-29T12:19:54.660Z,27.31
2022-10-29T12:23:05.244Z,27.30
2022-10-29T12:26:22.020Z,27.34
2022-10-29T12:29:08.848Z,27.43
2022-10-29T12:31:45.853Z,27.53
2022-10-29T12:34:41.594Z,27.62
2022-10-29T12:37:13.071Z,27.69
2022-10-29T12:39:47.384Z,27.75
2022-10-29T12:42:22.541Z,27.77
2022-10-29T12:45:53.039Z,27.77
2022-10-29T12:48:38.960Z,27.85
2022-10-29T12:51:14.710Z,27.90
2022-10-29T12:53:58.012Z,27.92
2022-10-29T12:56:25.220Z,27.95
2022-10-29T12:58:57.049Z,27.98
2022-10-29T13:01:38.302Z,28.00
2022-10-29T13:04:23.784Z,28.00
2022-10-29T13:06:57.734Z,28.03
2022-10-29T13:09:34.167Z,28.07
2022-10-29T13:12:03.745Z,28.09
2022-10-29T13:14:45.386Z,28.10
2022-10-29T13:17:30.774Z,28.12
2022-10-29T13:20:33.114Z,28.14
2022-10-29T13:23:02.870Z,28.17
2022-10-29T13:25:47.469Z,28.18
2022-10-29T13:28:13.917Z,28.20
2022-10-29T13:30:42.474Z,28.21
2022-10-29T13:33:23.871Z,28.19
2022-10-29T13:35:57.880Z,28.23
2022-10-29T13:38:52.176Z,28.25
2022-10-29T13:41:44.233Z,28.28
2022-10-29T13:44:38.688Z,28.25
2022-10-29T13:47:22.521Z,28.21
2022-10-29T13:49:58.069Z,28.17
2022-10-29T13:52:25.270Z,28.11
2022-10-29T13:55:00.585Z,28.06
2022-10-29T13:57:38.993Z,28.01
2022-10-29T14:00:13.218Z,27.94
2022-10-29T14:02:42.895Z,27.88
2022-10-29T14:05:28.114Z,27.77
2022-10-29T14:08:21.525Z,27.69
2022-10-29T14:10:51.936Z,27.61
2022-10-29T14:14:10.310Z,27.47
2022-10-29T14:16:37.172Z,27.39
2022-10-29T14:19:15.160Z,27.27
2022-10-29T14:21:45.406Z,27.18
2022-10-29T14:24:16.340Z,27.12
2022-10-29T14:26:44.392Z,27.03
2022-10-29T14:29:22.629Z,26.95
2022-10-29T14:32:19.800Z,26.87
2022-10-29T14:34:51.716Z,26.82
2022-10-29T14:37:38.947Z,26.74
2022-10-29T14:40:16.316Z,26.67
2022-10-29T14:42:53.980Z,26.59
2022-10-29T14:45:25.314Z,26.53
2022-10-29T14:47:55.407Z,26.49
2022-10-29T14:50:25.407Z,26.45
2022-10-29T14:53:05.590Z,26.38
2022-10-29T14:55:46.581Z,26.34
2022-10-29T14:58:29.790Z,26.29
2022-10-29T15:01:01.615Z,26.24
2022-10-29T15:03:32.945Z,26.19
2022-10-29T15:06:15.736Z,26.14
2022-10-29T15:08:44.862Z,26.11
2022-10-29T15:11:33.938Z,26.06
2022-10-29T15:14:21.486Z,26.02
2022-10-29T15:16:48.036Z,25.95
2022-10-29T15:19:17.111Z,25.86
2022-10-29T15:21:44.223Z,25.80
2022-10-29T15:24:20.986Z,25.73
2022-10-29T15:26:54.804Z,25.69
2022-10-29T15:29:42.761Z,25.62
2022-10-29T15:32:14.777Z,25.59
2022-10-29T15:34:51.659Z,25.54
2022-10-29T15:37:18.074Z,25.51
2022-10-29T15:39:59.427Z,25.45
2022-10-29T15:42:32.072Z,25.39
2022-10-29T15:45:27.763Z,25.31
2022-10-29T15:48:18.477Z,25.26
2022-10-29T15:50:45.929Z,25.21
2022-10-29T15:53:15.462Z,25.13
2022-10-29T15:55:45.114Z,25.04
2022-10-29T15:58:15.273Z,24.95
2022-10-29T16:00:41.782Z,24.91
2022-10-29T16:03:19.001Z,24.85
2022-10-29T16:05:49.240Z,24.79
2022-10-29T16:08:22.749Z,24.71
2022-10-29T16:10:49.311Z,24.65
2022-10-29T16:13:17.765Z,24.58
2022-10-29T16:15:45.597Z,24.51
2022-10-29T16:18:12.079Z,24.43
2022-10-29T16:20:38.583Z,24.36
2022-10-29T16:23:05.053Z,24.30
2022-10-29T16:25:33.566Z,24.24
2022-10-29T16:28:00.455Z,24.20
2022-10-29T16:30:27.158Z,24.15
2022-10-29T16:32:54.677Z,24.11
2022-10-29T16:35:27.682Z,24.04
2022-10-29T16:37:55.957Z,23.99
2022-10-29T16:40:26.039Z,23.93
2022-10-29T16:42:55.037Z,23.88
2022-10-29T16:45:28.253Z,23.83
2022-10-29T16:47:54.999Z,23.77
2022-10-29T16:50:29.789Z,23.71
2022-10-29T16:53:14.956Z,23.65
2022-10-29T16:55:41.561Z,23.62
2022-10-29T16:58:15.611Z,23.58
2022-10-29T17:00:42.490Z,23.55
2022-10-29T17:03:12.385Z,23.54
2022-10-29T17:05:42.421Z,23.53
2022-10-29T17:08:09.660Z,23.51
2022-10-29T17:10:36.593Z,23.50
2022-10-29T17:13:04.083Z,23.47
2022-10-29T17:15:32.228Z,23.46
2022-10-29T17:17:59.103Z,23.49
2022-10-29T17:20:25.754Z,23.49
2022-10-29T17:22:52.896Z,23.47
2022-10-29T17:25:23.871Z,23.44
2022-10-29T17:27:50.430Z,23.42
2022-10-29T17:30:16.922Z,23.40
2022-10-29T17:32:43.380Z,23.37
2022-10-29T17:35:13.680Z,23.34
2022-10-29T17:37:40.192Z,23.31
2022-10-29T17:40:08.333Z,23.29
2022-10-29T17:42:35.187Z,23.28
2022-10-29T17:45:27.359Z,23.24
2022-10-29T17:47:56.199Z,23.23
2022-10-29T17:50:24.252Z,23.20
2022-10-29T17:52:54.335Z,23.18
2022-10-29T17:55:21.029Z,23.13
2022-10-29T17:57:47.602Z,23.12
2022-10-29T18:00:14.630Z,23.12
2022-10-29T18:02:41.254Z,23.09
2022-10-29T18:05:08.361Z,23.07
2022-10-29T18:07:34.899Z,23.03
2022-10-29T18:10:01.437Z,23.01
2022-10-29T18:12:27.897Z,23.02
2022-10-29T18:14:58.809Z,23.02
2022-10-29T18:17:25.397Z,23.02
2022-10-29T18:19:51.918Z,23.00
2022-10-29T18:22:18.427Z,22.96
2022-10-29T18:24:48.868Z,22.91
2022-10-29T18:27:15.400Z,22.89
2022-10-29T18:29:41.913Z,22.81
2022-10-29T18:32:08.372Z,22.76
2022-10-29T18:34:36.264Z,22.72
2022-10-29T18:37:02.761Z,22.66
2022-10-29T18:39:29.338Z,22.61
2022-10-29T18:41:57.057Z,22.57
2022-10-29T18:44:31.160Z,22.53
2022-10-29T18:46:57.689Z,22.51
2022-10-29T18:49:24.188Z,22.51
2022-10-29T18:51:50.646Z,22.47
2022-10-29T18:54:21.988Z,22.44
2022-10-29T18:56:48.582Z,22.37
2022-10-29T18:59:15.133Z,22.34
2022-10-29T19:01:41.816Z,22.33
2022-10-29T19:04:16.105Z,22.28
2022-10-29T19:06:43.139Z,22.24
2022-10-29T19:09:10.941Z,22.18
2022-10-29T19:11:37.565Z,22.13
2022-10-29T19:14:09.259Z,22.11
2022-10-29T19:16:35.819Z,22.06
2022-10-29T19:19:07.122Z,22.00
2022-10-29T19:21:35.627Z,21.96
2022-10-29T19:24:24.610Z,21.94
2022-10-29T19:26:51.129Z,21.90
2022-10-29T19:29:17.613Z,21.86
2022-10-29T19:31:45.163Z,21.82
2022-10-29T19:34:13.564Z,21.78
2022-10-29T19:36:40.334Z,21.74
2022-10-29T19:39:07.965Z,21.71
2022-10-29T19:41:34.578Z,21.70
2022-10-29T19:44:10.840Z,21.72
2022-10-29T19:46:37.375Z,21.76
2022-10-29T19:49:03.824Z,21.76
2022-10-29T19:51:30.367Z,21.73
2022-10-29T19:53:58.623Z,21.74
2022-10-29T19:56:25.176Z,21.73
2022-10-29T19:58:51.747Z,21.70
2022-10-29T20:01:18.662Z,21.66
2022-10-29T20:03:46.321Z,21.62
2022-10-29T20:06:17.775Z,21.61
2022-10-29T20:08:44.315Z,21.60
2022-10-29T20:11:10.877Z,21.57
2022-10-29T20:13:39.501Z,21.56
2022-10-29T20:16:18.620Z,21.59
2022-10-29T20:18:45.933Z,21.64
2022-10-29T20:21:13.780Z,21.70
2022-10-29T20:23:40.800Z,21.73
2022-10-29T20:26:08.331Z,21.74
2022-10-29T20:28:34.874Z,21.76
2022-10-29T20:31:16.706Z,21.73
2022-10-29T20:33:50.622Z,21.74
2022-10-29T20:36:17.262Z,21.70
2022-10-29T20:38:43.741Z,21.65
2022-10-29T20:41:10.224Z,21.63
2022-10-29T20:43:36.697Z,21.61
2022-10-29T20:46:03.808Z,21.58
2022-10-29T20:48:30.640Z,21.56
2022-10-29T20:51:03.542Z,21.52
2022-10-29T20:53:30.368Z,21.50
2022-10-29T20:55:59.595Z,21.47
2022-10-29T20:58:26.058Z,21.46
2022-10-29T21:00:52.630Z,21.47
2022-10-29T21:03:19.141Z,21.46
2022-10-29T21:05:47.116Z,21.45
2022-10-29T21:08:13.667Z,21.42
2022-10-29T21:10:40.172Z,21.41
2022-10-29T21:13:07.889Z,21.37
2022-10-29T21:15:37.544Z,21.33
2022-10-29T21:18:04.405Z,21.29
2022-10-29T21:20:30.904Z,21.23
2022-10-29T21:22:57.723Z,21.19
2022-10-29T21:25:24.420Z,21.16
2022-10-29T21:27:53.965Z,21.13
2022-10-29T21:30:20.706Z,21.10
2022-10-29T21:32:47.147Z,21.05
2022-10-29T21:35:16.669Z,21.04
2022-10-29T21:37:43.325Z,21.03
2022-10-29T21:40:10.367Z,21.03
2022-10-29T21:42:36.888Z,21.03
2022-10-29T21:45:08.243Z,21.03
2022-10-29T21:47:34.816Z,21.04
2022-10-29T21:50:01.323Z,21.07
2022-10-29T21:52:27.850Z,21.06
2022-10-29T21:54:55.361Z,21.07
2022-10-29T21:57:21.838Z,21.08
2022-10-29T21:59:48.287Z,21.11
2022-10-29T22:02:15.015Z,21.13
2022-10-29T22:04:43.829Z,21.11
2022-10-29T22:07:10.361Z,21.14
2022-10-29T22:09:36.828Z,21.12
2022-10-29T22:12:03.492Z,21.09
2022-10-29T22:14:31.315Z,21.09
2022-10-29T22:16:58.874Z,21.07
2022-10-29T22:19:25.421Z,21.06
2022-10-29T22:21:55.231Z,21.06
2022-10-29T22:24:26.325Z,21.03
2022-10-29T22:26:52.837Z,21.04
2022-10-29T22:29:19.321Z,21.02
2022-10-29T22:31:45.836Z,20.98
2022-10-29T22:34:13.330Z,20.92
2022-10-29T22:36:39.826Z,20.85
2022-10-29T22:39:06.480Z,20.82
2022-10-29T22:41:33.167Z,20.78
2022-10-29T22:44:00.157Z,20.73
2022-10-29T22:46:29.140Z,20.70
2022-10-29T22:48:56.591Z,20.67
2022-10-29T22:51:25.319Z,20.63
2022-10-29T22:53:52.766Z,20.59
2022-10-29T22:56:35.587Z,20.49
2022-10-29T22:59:02.956Z,20.42
2022-10-29T23:01:32.185Z,20.39
2022-10-29T23:03:59.316Z,20.39
2022-10-29T23:06:26.987Z,20.40
2022-10-29T23:08:55.846Z,20.40
2022-10-29T23:11:25.134Z,20.41
2022-10-29T23:14:00.010Z,20.39
2022-10-29T23:16:29.488Z,20.38
2022-10-29T23:18:58.629Z,20.34
2022-10-29T23:21:25.720Z,20.30
2022-10-29T23:23:52.725Z,20.31
2022-10-29T23:26:20.915Z,20.30
2022-10-29T23:28:48.872Z,20.26
2022-10-29T23:31:19.190Z,20.19
2022-10-29T23:33:47.935Z,20.16
2022-10-29T23:36:17.188Z,20.17
2022-10-29T23:38:44.069Z,20.19
2022-10-29T23:41:11.446Z,20.20
2022-10-29T23:43:37.995Z,20.17
2022-10-29T23:46:06.177Z,20.18
2022-10-29T23:48:32.700Z,20.19
2022-10-29T23:50:59.626Z,20.20
2022-10-29T23:53:26.909Z,20.20
2022-10-29T23:55:53.354Z,20.18
2022-10-29T23:58:19.948Z,20.18
